createdAt,value
2018-11-07T00:00:09.376Z,7.93
2018-11-07T00:02:36.963Z,7.88
2018-11-07T00:05:05.271Z,7.88
2018-11-07T00:07:32.925Z,7.98
2018-11-07T00:10:00.718Z,7.92
2018-11-07T00:12:28.271Z,7.82
2018-11-07T00:14:55.762Z,7.73
2018-11-07T00:17:23.363Z,7.66
2018-11-07T00:19:50.851Z,7.66
2018-11-07T00:22:18.415Z,7.57
2018-11-07T00:24:45.894Z,7.54
2018-11-07T00:27:13.375Z,7.54
2018-11-07T00:29:40.880Z,7.51
2018-11-07T00:32:08.430Z,7.49
2018-11-07T00:34:35.890Z,7.47
2018-11-07T00:37:03.656Z,7.51
2018-11-07T00:39:31.055Z,7.52
2018-11-07T00:41:58.683Z,7.49
2018-11-07T00:44:26.214Z,7.54
2018-11-07T00:46:53.701Z,7.55
2018-11-07T00:49:21.136Z,7.55
2018-11-07T00:51:48.876Z,7.55
2018-11-07T00:54:16.326Z,7.46
2018-11-07T00:56:43.812Z,7.45
2018-11-07T00:59:11.589Z,7.49
2018-11-07T01:01:39.126Z,7.55
2018-11-07T01:04:06.733Z,7.48
2018-11-07T01:06:34.687Z,7.38
2018-11-07T01:09:02.435Z,7.30
2018-11-07T01:11:29.974Z,7.32
2018-11-07T01:13:57.445Z,7.39
2018-11-07T01:16:24.969Z,7.49
2018-11-07T01:18:52.465Z,7.55
2018-11-07T01:21:20.112Z,7.66
2018-11-07T01:23:47.663Z,7.79
2018-11-07T01:26:15.342Z,7.91
2018-11-07T01:28:42.960Z,7.94
2018-11-07T01:31:10.497Z,7.95
2018-11-07T01:33:38.128Z,7.99
2018-11-07T01:36:05.740Z,8.06
2018-11-07T01:38:33.310Z,8.12
2018-11-07T01:41:00.955Z,8.16
2018-11-07T01:43:28.591Z,8.19
2018-11-07T01:45:56.173Z,8.24
2018-11-07T01:48:23.951Z,8.28
2018-11-07T01:50:51.777Z,8.37
2018-11-07T01:53:19.454Z,8.40
2018-11-07T01:55:47.266Z,8.45
2018-11-07T01:58:14.914Z,8.51
2018-11-07T02:00:42.428Z,8.56
2018-11-07T02:03:09.869Z,8.56
2018-11-07T02:05:37.367Z,8.54
2018-11-07T02:08:04.972Z,8.53
2018-11-07T02:10:32.540Z,8.56
2018-11-07T02:13:00.081Z,8.60
2018-11-07T02:15:27.598Z,8.60
2018-11-07T02:17:55.034Z,8.61
2018-11-07T02:20:22.704Z,8.64
2018-11-07T02:22:50.188Z,8.62
2018-11-07T02:25:17.720Z,8.64
2018-11-07T02:27:45.185Z,8.68
2018-11-07T02:30:14.394Z,8.65
2018-11-07T02:32:41.893Z,8.53
2018-11-07T02:35:09.381Z,8.36
2018-11-07T02:37:36.951Z,8.16
2018-11-07T02:40:04.815Z,7.97
2018-11-07T02:42:32.431Z,7.83
2018-11-07T02:44:59.861Z,7.69
2018-11-07T02:47:27.384Z,7.62
2018-11-07T02:49:54.824Z,7.58
2018-11-07T02:52:22.226Z,7.53
2018-11-07T02:54:49.678Z,7.55
2018-11-07T02:57:17.235Z,7.57
2018-11-07T02:59:44.750Z,7.53
2018-11-07T03:02:12.441Z,7.48
2018-11-07T03:04:40.049Z,7.45
2018-11-07T03:07:07.469Z,7.43
2018-11-07T03:09:34.999Z,7.34
2018-11-07T03:12:02.586Z,7.21
2018-11-07T03:14:30.015Z,7.11
2018-11-07T03:16:57.552Z,7.00
2018-11-07T03:19:25.007Z,6.94
2018-11-07T03:21:52.599Z,6.87
2018-11-07T03:24:20.021Z,6.81
2018-11-07T03:26:47.514Z,6.74
2018-11-07T03:29:14.945Z,6.69
2018-11-07T03:31:42.451Z,6.64
2018-11-07T03:34:10.011Z,6.57
2018-11-07T03:36:37.429Z,6.59
2018-11-07T03:39:08.015Z,6.67
2018-11-07T03:41:35.552Z,6.74
2018-11-07T03:44:03.306Z,6.76
2018-11-07T03:46:30.835Z,6.76
2018-11-07T03:48:58.299Z,6.70
2018-11-07T03:51:25.727Z,6.60
2018-11-07T03:53:53.187Z,6.51
2018-11-07T03:56:20.737Z,6.51
2018-11-07T03:58:48.187Z,6.46
2018-11-07T04:01:15.817Z,6.39
2018-11-07T04:03:43.437Z,6.32
2018-11-07T04:06:10.953Z,6.28
2018-11-07T04:08:45.014Z,6.24
2018-11-07T04:11:12.574Z,6.19
2018-11-07T04:13:40.156Z,6.16
2018-11-07T04:16:07.652Z,6.17
2018-11-07T04:18:35.106Z,6.17
2018-11-07T04:21:03.882Z,6.27
2018-11-07T04:23:31.463Z,6.32
2018-11-07T04:25:58.964Z,6.32
2018-11-07T04:28:26.394Z,6.30
2018-11-07T04:30:53.850Z,6.23
2018-11-07T04:33:21.308Z,6.20
2018-11-07T04:35:48.802Z,6.17
2018-11-07T04:38:16.306Z,6.13
2018-11-07T04:40:43.766Z,6.03
2018-11-07T04:43:11.234Z,6.01
2018-11-07T04:45:38.686Z,6.02
2018-11-07T04:48:06.101Z,5.96
2018-11-07T04:50:33.502Z,5.93
2018-11-07T04:53:00.954Z,5.98
2018-11-07T04:55:28.386Z,5.97
2018-11-07T04:57:55.781Z,5.90
2018-11-07T05:00:23.377Z,5.90
2018-11-07T05:02:50.753Z,5.89
2018-11-07T05:05:18.330Z,5.89
2018-11-07T05:07:45.843Z,5.89
2018-11-07T05:10:13.202Z,5.85
2018-11-07T05:12:40.633Z,5.84
2018-11-07T05:15:08.986Z,5.83
2018-11-07T05:17:36.515Z,5.86
2018-11-07T05:20:05.709Z,5.86
2018-11-07T05:22:33.182Z,5.87
2018-11-07T05:25:00.598Z,5.87
2018-11-07T05:27:28.024Z,5.84
2018-11-07T05:29:55.468Z,5.87
2018-11-07T05:32:23.038Z,5.89
2018-11-07T05:34:50.492Z,5.90
2018-11-07T05:37:17.956Z,5.90
2018-11-07T05:39:45.354Z,5.88
2018-11-07T05:42:12.766Z,5.91
2018-11-07T05:44:40.304Z,5.91
2018-11-07T05:47:07.777Z,5.82
2018-11-07T05:49:35.183Z,5.78
2018-11-07T05:52:02.661Z,5.72
2018-11-07T05:54:30.095Z,5.65
2018-11-07T05:56:57.497Z,5.59
2018-11-07T05:59:24.945Z,5.51
2018-11-07T06:01:52.370Z,5.47
2018-11-07T06:04:19.870Z,5.45
2018-11-07T06:06:47.371Z,5.44
2018-11-07T06:09:14.790Z,5.47
2018-11-07T06:11:42.425Z,5.51
2018-11-07T06:14:09.843Z,5.55
2018-11-07T06:16:37.346Z,5.58
2018-11-07T06:19:05.007Z,5.59
2018-11-07T06:21:32.806Z,5.55
2018-11-07T06:24:00.271Z,5.50
2018-11-07T06:26:27.750Z,5.48
2018-11-07T06:28:55.196Z,5.50
2018-11-07T06:31:22.638Z,5.52
2018-11-07T06:33:50.070Z,5.59
2018-11-07T06:36:17.688Z,5.70
2018-11-07T06:38:45.104Z,5.81
2018-11-07T06:41:12.554Z,5.90
2018-11-07T06:43:40.136Z,6.01
2018-11-07T06:46:07.580Z,6.09
2018-11-07T06:48:35.045Z,6.20
2018-11-07T06:51:02.502Z,6.29
2018-11-07T06:53:29.961Z,6.39
2018-11-07T06:55:57.410Z,6.47
2018-11-07T06:58:24.860Z,6.60
2018-11-07T07:00:52.290Z,6.76
2018-11-07T07:03:19.762Z,6.93
2018-11-07T07:05:47.258Z,7.02
2018-11-07T07:08:14.670Z,7.09
2018-11-07T07:10:42.243Z,7.21
2018-11-07T07:13:09.710Z,7.31
2018-11-07T07:15:37.206Z,7.52
2018-11-07T07:18:05.039Z,7.71
2018-11-07T07:20:32.446Z,7.84
2018-11-07T07:22:59.986Z,7.82
2018-11-07T07:25:27.504Z,7.84
2018-11-07T07:27:54.974Z,7.79
2018-11-07T07:30:25.482Z,7.85
2018-11-07T07:32:53.049Z,7.86
2018-11-07T07:35:20.679Z,8.00
2018-11-07T07:37:48.115Z,9.00
2018-11-07T07:40:16.143Z,10.58
2018-11-07T07:42:44.498Z,11.58
2018-11-07T07:45:14.129Z,12.82
2018-11-07T07:47:42.393Z,13.56
2018-11-07T07:50:11.541Z,14.74
2018-11-07T07:52:39.567Z,15.80
2018-11-07T07:55:07.921Z,16.96
2018-11-07T07:57:35.961Z,18.03
2018-11-07T08:00:03.887Z,17.69
2018-11-07T08:02:31.322Z,16.53
2018-11-07T08:04:58.777Z,15.36
2018-11-07T08:07:26.316Z,14.42
2018-11-07T08:09:53.745Z,13.83
2018-11-07T08:12:21.297Z,13.58
2018-11-07T08:14:48.795Z,13.10
2018-11-07T08:17:16.382Z,12.52
2018-11-07T08:19:43.832Z,12.08
2018-11-07T08:22:11.412Z,11.66
2018-11-07T08:24:38.936Z,11.29
2018-11-07T08:27:06.468Z,11.05
2018-11-07T08:29:34.187Z,10.92
2018-11-07T08:32:01.809Z,10.79
2018-11-07T08:34:29.394Z,10.71
2018-11-07T08:36:56.831Z,10.67
2018-11-07T08:39:24.283Z,10.64
2018-11-07T08:41:51.966Z,10.60
2018-11-07T08:44:19.458Z,10.55
2018-11-07T08:46:46.978Z,10.51
2018-11-07T08:49:14.630Z,10.46
2018-11-07T08:51:42.251Z,10.48
2018-11-07T08:54:09.651Z,10.51
2018-11-07T08:56:37.231Z,10.57
2018-11-07T08:59:05.108Z,10.59
2018-11-07T09:01:32.685Z,10.62
2018-11-07T09:04:00.097Z,10.67
2018-11-07T09:06:27.673Z,10.74
2018-11-07T09:08:55.094Z,10.77
2018-11-07T09:11:22.582Z,10.80
2018-11-07T09:13:50.357Z,10.85
2018-11-07T09:16:17.874Z,10.88
2018-11-07T09:18:45.370Z,10.92
2018-11-07T09:21:12.922Z,10.97
2018-11-07T09:23:40.584Z,11.01
2018-11-07T09:26:08.101Z,10.99
2018-11-07T09:28:35.549Z,10.98
2018-11-07T09:31:03.070Z,11.05
2018-11-07T09:33:30.559Z,11.09
2018-11-07T09:35:58.024Z,11.16
2018-11-07T09:38:25.648Z,11.20
2018-11-07T09:40:53.226Z,11.25
2018-11-07T09:43:20.755Z,11.30
2018-11-07T09:45:48.223Z,11.34
2018-11-07T09:48:15.893Z,11.37
2018-11-07T09:50:43.284Z,11.38
2018-11-07T09:53:10.726Z,11.37
2018-11-07T09:55:38.226Z,11.46
2018-11-07T09:58:05.970Z,11.55
2018-11-07T10:00:33.437Z,11.63
2018-11-07T10:03:00.905Z,11.77
2018-11-07T10:05:28.443Z,11.79
2018-11-07T10:07:55.902Z,11.79
2018-11-07T10:10:23.424Z,11.87
2018-11-07T10:12:51.164Z,11.92
2018-11-07T10:15:19.241Z,11.98
2018-11-07T10:17:46.729Z,12.08
2018-11-07T10:20:20.945Z,12.16
2018-11-07T10:22:48.930Z,12.20
2018-11-07T10:25:16.656Z,12.22
2018-11-07T10:27:44.566Z,12.26
2018-11-07T10:30:14.196Z,12.30
2018-11-07T10:32:42.716Z,12.36
2018-11-07T10:35:10.505Z,12.40
2018-11-07T10:37:38.031Z,12.46
2018-11-07T10:40:12.987Z,12.51
2018-11-07T10:42:40.758Z,12.58
2018-11-07T10:45:08.788Z,12.65
2018-11-07T10:47:36.237Z,12.73
2018-11-07T10:50:04.394Z,12.76
2018-11-07T10:52:31.871Z,12.86
2018-11-07T10:54:59.320Z,12.90
2018-11-07T10:57:26.879Z,12.94
2018-11-07T10:59:54.355Z,13.03
2018-11-07T11:02:27.555Z,13.06
2018-11-07T11:04:55.084Z,13.10
2018-11-07T11:07:22.517Z,13.20
2018-11-07T11:09:49.933Z,13.21
2018-11-07T11:12:17.373Z,13.23
2018-11-07T11:14:44.900Z,13.27
2018-11-07T11:17:12.487Z,13.35
2018-11-07T11:19:39.989Z,13.46
2018-11-07T11:22:07.748Z,13.57
2018-11-07T11:24:35.251Z,13.66
2018-11-07T11:27:02.781Z,13.68
2018-11-07T11:29:30.293Z,13.69
2018-11-07T11:31:57.739Z,13.68
2018-11-07T11:34:25.314Z,13.67
2018-11-07T11:36:52.635Z,13.68
2018-11-07T11:39:20.069Z,13.69
2018-11-07T11:41:47.585Z,13.70
2018-11-07T11:44:15.022Z,13.75
2018-11-07T11:46:43.253Z,13.78
2018-11-07T11:49:10.700Z,13.80
2018-11-07T11:51:38.213Z,13.80
2018-11-07T11:54:05.621Z,13.81
2018-11-07T11:56:33.066Z,13.81
2018-11-07T11:59:00.568Z,13.83
2018-11-07T12:01:27.956Z,13.88
2018-11-07T12:03:55.539Z,13.92
2018-11-07T12:06:23.047Z,13.96
2018-11-07T12:08:50.723Z,13.97
2018-11-07T12:11:18.307Z,14.00
2018-11-07T12:13:45.801Z,14.09
2018-11-07T12:16:13.441Z,14.11
2018-11-07T12:18:40.985Z,14.10
2018-11-07T12:21:08.579Z,14.10
2018-11-07T12:23:36.121Z,14.11
2018-11-07T12:26:03.661Z,14.11
2018-11-07T12:28:31.141Z,14.18
2018-11-07T12:30:58.827Z,14.39
2018-11-07T12:33:26.255Z,14.44
2018-11-07T12:35:53.773Z,14.56
2018-11-07T12:38:21.353Z,14.69
2018-11-07T12:40:48.903Z,14.79
2018-11-07T12:43:16.580Z,14.73
2018-11-07T12:45:44.051Z,14.72
2018-11-07T12:48:11.821Z,14.78
2018-11-07T12:50:39.392Z,14.70
2018-11-07T12:53:06.872Z,14.71
2018-11-07T12:55:34.339Z,14.78
2018-11-07T12:58:01.947Z,14.79
2018-11-07T13:00:29.305Z,14.86
2018-11-07T13:02:56.920Z,15.07
2018-11-07T13:05:25.113Z,15.11
2018-11-07T13:07:53.593Z,15.22
2018-11-07T13:10:21.888Z,15.14
2018-11-07T13:12:50.059Z,15.12
2018-11-07T13:15:18.074Z,15.08
2018-11-07T13:17:46.404Z,15.02
2018-11-07T13:20:16.127Z,14.96
2018-11-07T13:22:44.749Z,14.94
2018-11-07T13:25:12.763Z,14.91
2018-11-07T13:27:40.357Z,14.89
2018-11-07T13:30:10.071Z,14.90
2018-11-07T13:32:37.854Z,14.96
2018-11-07T13:35:06.825Z,14.94
2018-11-07T13:37:34.508Z,14.95
2018-11-07T13:40:01.705Z,14.89
2018-11-07T13:42:29.185Z,14.81
2018-11-07T13:44:56.645Z,14.75
2018-11-07T13:47:24.216Z,14.69
2018-11-07T13:49:51.685Z,14.65
2018-11-07T13:52:19.161Z,14.64
2018-11-07T13:54:46.591Z,14.59
2018-11-07T13:57:13.996Z,14.64
2018-11-07T13:59:41.658Z,14.72
2018-11-07T14:02:09.121Z,14.73
2018-11-07T14:04:36.631Z,14.76
2018-11-07T14:07:04.129Z,14.78
2018-11-07T14:09:31.679Z,14.77
2018-11-07T14:11:59.183Z,14.76
2018-11-07T14:14:26.731Z,14.79
2018-11-07T14:16:54.355Z,14.84
2018-11-07T14:19:21.981Z,14.96
2018-11-07T14:21:49.729Z,15.04
2018-11-07T14:24:17.285Z,14.99
2018-11-07T14:26:46.799Z,14.77
2018-11-07T14:29:16.366Z,14.54
2018-11-07T14:31:43.930Z,14.33
2018-11-07T14:34:11.834Z,14.17
2018-11-07T14:36:39.466Z,14.06
2018-11-07T14:39:08.080Z,13.93
2018-11-07T14:41:35.554Z,13.86
2018-11-07T14:44:03.129Z,13.78
2018-11-07T14:46:30.720Z,13.73
2018-11-07T14:48:58.073Z,13.57
2018-11-07T14:51:25.610Z,13.41
2018-11-07T14:53:53.072Z,13.33
2018-11-07T14:56:20.519Z,13.24
2018-11-07T14:58:48.014Z,13.10
2018-11-07T15:01:15.570Z,13.02
2018-11-07T15:03:43.054Z,12.97
2018-11-07T15:06:10.956Z,12.91
2018-11-07T15:08:38.337Z,12.81
2018-11-07T15:11:05.968Z,12.81
2018-11-07T15:13:33.558Z,12.74
2018-11-07T15:16:01.090Z,12.68
2018-11-07T15:18:28.542Z,12.65
2018-11-07T15:20:56.075Z,12.56
2018-11-07T15:23:23.653Z,12.48
2018-11-07T15:25:51.151Z,12.44
2018-11-07T15:28:18.590Z,12.49
2018-11-07T15:30:46.118Z,12.54
2018-11-07T15:33:13.526Z,12.57
2018-11-07T15:35:41.080Z,12.61
2018-11-07T15:38:08.592Z,12.47
2018-11-07T15:40:36.139Z,12.33
2018-11-07T15:43:03.729Z,12.29
2018-11-07T15:45:31.165Z,12.39
2018-11-07T15:47:58.731Z,12.45
2018-11-07T15:50:31.817Z,12.50
2018-11-07T15:52:59.317Z,12.50
2018-11-07T15:55:27.259Z,12.42
2018-11-07T15:57:54.779Z,12.28
2018-11-07T16:00:22.247Z,12.15
2018-11-07T16:02:49.835Z,12.10
2018-11-07T16:05:17.735Z,12.15
2018-11-07T16:07:45.231Z,12.08
2018-11-07T16:10:13.833Z,12.01
2018-11-07T16:12:42.027Z,12.02
2018-11-07T16:15:11.467Z,12.10
2018-11-07T16:17:39.492Z,12.28
2018-11-07T16:20:10.778Z,12.41
2018-11-07T16:22:38.496Z,12.46
2018-11-07T16:25:06.866Z,12.39
2018-11-07T16:27:34.686Z,12.50
2018-11-07T16:30:02.321Z,12.35
2018-11-07T16:32:31.578Z,12.30
2018-11-07T16:34:59.139Z,12.27
2018-11-07T16:37:26.571Z,12.29
2018-11-07T16:39:54.527Z,12.17
2018-11-07T16:42:22.075Z,12.02
2018-11-07T16:44:49.498Z,11.89
2018-11-07T16:47:17.011Z,11.78
2018-11-07T16:49:44.514Z,11.76
2018-11-07T16:52:12.076Z,11.72
2018-11-07T16:54:39.496Z,11.64
2018-11-07T16:57:06.994Z,11.56
2018-11-07T16:59:34.652Z,11.38
2018-11-07T17:02:02.095Z,11.30
2018-11-07T17:04:29.586Z,11.29
2018-11-07T17:06:57.041Z,11.21
2018-11-07T17:09:24.589Z,11.16
2018-11-07T17:11:52.140Z,11.15
2018-11-07T17:14:19.730Z,11.16
2018-11-07T17:16:47.134Z,11.22
2018-11-07T17:19:14.618Z,11.25
2018-11-07T17:21:42.094Z,11.29
2018-11-07T17:24:09.816Z,11.32
2018-11-07T17:26:37.316Z,11.35
2018-11-07T17:29:04.992Z,11.38
2018-11-07T17:31:32.727Z,11.45
2018-11-07T17:34:00.200Z,11.50
2018-11-07T17:36:27.818Z,11.55
2018-11-07T17:38:55.246Z,11.61
2018-11-07T17:41:23.016Z,11.65
2018-11-07T17:43:50.436Z,11.70
2018-11-07T17:46:17.942Z,11.76
2018-11-07T17:48:45.564Z,11.80
2018-11-07T17:51:13.076Z,11.84
2018-11-07T17:53:40.580Z,11.85
2018-11-07T17:56:08.143Z,11.86
2018-11-07T17:58:35.608Z,11.87
2018-11-07T18:01:03.152Z,11.87
2018-11-07T18:03:30.631Z,11.94
2018-11-07T18:05:58.093Z,12.00
2018-11-07T18:08:25.661Z,12.02
2018-11-07T18:10:53.226Z,12.15
2018-11-07T18:13:20.700Z,12.40
2018-11-07T18:15:48.154Z,12.41
2018-11-07T18:18:15.718Z,12.35
2018-11-07T18:20:43.297Z,12.23
2018-11-07T18:23:10.726Z,12.12
2018-11-07T18:25:38.205Z,12.10
2018-11-07T18:28:05.765Z,12.09
2018-11-07T18:30:33.550Z,12.04
2018-11-07T18:33:01.164Z,12.02
2018-11-07T18:35:28.710Z,12.02
2018-11-07T18:37:56.118Z,12.03
2018-11-07T18:40:23.635Z,12.03
2018-11-07T18:42:51.206Z,12.04
2018-11-07T18:45:18.798Z,12.03
2018-11-07T18:47:46.826Z,12.04
2018-11-07T18:50:15.827Z,12.07
2018-11-07T18:52:43.640Z,12.34
2018-11-07T18:55:12.488Z,12.33
2018-11-07T18:57:40.703Z,12.26
2018-11-07T19:00:11.783Z,12.20
2018-11-07T19:02:39.820Z,12.11
2018-11-07T19:05:07.976Z,12.03
2018-11-07T19:07:36.285Z,11.97
2018-11-07T19:10:05.303Z,11.91
2018-11-07T19:12:32.799Z,12.07
2018-11-07T19:15:00.774Z,12.08
2018-11-07T19:17:28.315Z,12.00
2018-11-07T19:19:55.784Z,11.95
2018-11-07T19:22:23.357Z,11.93
2018-11-07T19:24:50.826Z,11.95
2018-11-07T19:27:21.351Z,11.86
2018-11-07T19:29:48.835Z,11.83
2018-11-07T19:32:16.275Z,11.82
2018-11-07T19:34:43.800Z,11.72
2018-11-07T19:37:11.338Z,11.64
2018-11-07T19:39:38.904Z,11.67
2018-11-07T19:42:06.484Z,11.66
2018-11-07T19:44:34.104Z,11.64
2018-11-07T19:47:01.764Z,11.63
2018-11-07T19:49:29.275Z,11.62
2018-11-07T19:51:56.766Z,11.65
2018-11-07T19:54:24.426Z,11.74
2018-11-07T19:56:52.158Z,11.73
2018-11-07T19:59:19.650Z,11.74
2018-11-07T20:01:47.222Z,11.78
2018-11-07T20:04:17.778Z,11.74
2018-11-07T20:06:45.305Z,11.73
2018-11-07T20:09:12.838Z,11.73
2018-11-07T20:11:40.502Z,11.72
2018-11-07T20:14:08.442Z,11.70
2018-11-07T20:16:36.044Z,11.63
2018-11-07T20:19:03.568Z,11.58
2018-11-07T20:21:31.369Z,11.55
2018-11-07T20:23:59.109Z,11.52
2018-11-07T20:26:26.646Z,11.50
2018-11-07T20:28:54.309Z,11.48
2018-11-07T20:31:21.907Z,11.46
2018-11-07T20:33:49.455Z,11.43
2018-11-07T20:36:17.452Z,11.41
2018-11-07T20:38:44.934Z,11.38
2018-11-07T20:41:12.563Z,11.36
2018-11-07T20:43:40.143Z,11.36
2018-11-07T20:46:07.653Z,11.44
2018-11-07T20:48:35.213Z,11.41
2018-11-07T20:51:02.711Z,11.40
2018-11-07T20:53:30.179Z,11.38
2018-11-07T20:55:57.797Z,11.39
2018-11-07T20:58:25.282Z,11.36
2018-11-07T21:00:52.715Z,11.31
2018-11-07T21:03:20.130Z,11.29
2018-11-07T21:05:47.748Z,11.32
2018-11-07T21:08:15.195Z,11.30
2018-11-07T21:10:42.835Z,11.30
2018-11-07T21:13:10.714Z,11.26
2018-11-07T21:15:38.369Z,11.24
2018-11-07T21:18:05.987Z,11.19
2018-11-07T21:20:33.539Z,11.15
2018-11-07T21:23:00.991Z,11.14
2018-11-07T21:25:28.591Z,11.25
2018-11-07T21:27:56.251Z,11.27
2018-11-07T21:30:23.767Z,11.33
2018-11-07T21:32:51.314Z,11.37
2018-11-07T21:35:18.839Z,11.37
2018-11-07T21:37:46.405Z,11.36
2018-11-07T21:40:15.507Z,11.32
2018-11-07T21:42:43.721Z,11.32
2018-11-07T21:45:12.356Z,11.40
2018-11-07T21:47:40.733Z,11.43
2018-11-07T21:50:09.982Z,11.59
2018-11-07T21:52:37.904Z,11.62
2018-11-07T21:55:06.333Z,11.62
2018-11-07T21:57:34.165Z,11.63
2018-11-07T22:00:01.830Z,11.67
2018-11-07T22:02:29.393Z,11.63
2018-11-07T22:04:56.861Z,11.57
2018-11-07T22:07:24.307Z,11.59
2018-11-07T22:09:51.786Z,11.59
2018-11-07T22:12:19.285Z,11.57
2018-11-07T22:14:46.762Z,11.57
2018-11-07T22:17:14.304Z,11.54
2018-11-07T22:19:41.850Z,11.46
2018-11-07T22:22:09.313Z,11.42
2018-11-07T22:24:36.760Z,11.40
2018-11-07T22:27:04.706Z,11.42
2018-11-07T22:29:32.126Z,11.41
2018-11-07T22:31:59.579Z,11.39
2018-11-07T22:34:27.073Z,11.40
2018-11-07T22:36:54.608Z,11.42
2018-11-07T22:39:22.062Z,11.39
2018-11-07T22:41:49.890Z,11.33
2018-11-07T22:44:17.298Z,11.31
2018-11-07T22:46:44.746Z,11.30
2018-11-07T22:49:12.225Z,11.31
2018-11-07T22:51:39.655Z,11.31
2018-11-07T22:54:07.086Z,11.33
2018-11-07T22:56:34.594Z,11.29
2018-11-07T22:59:02.058Z,11.30
2018-11-07T23:01:35.275Z,11.34
2018-11-07T23:04:02.751Z,11.33
2018-11-07T23:06:30.293Z,11.29
2018-11-07T23:08:57.769Z,11.32
2018-11-07T23:11:25.201Z,11.28
2018-11-07T23:13:52.764Z,11.26
2018-11-07T23:16:20.531Z,11.20
2018-11-07T23:18:54.814Z,11.16
2018-11-07T23:21:22.342Z,11.13
2018-11-07T23:23:49.768Z,11.10
2018-11-07T23:26:17.246Z,11.09
2018-11-07T23:28:44.660Z,11.09
2018-11-07T23:31:12.150Z,11.12
2018-11-07T23:33:39.654Z,11.17
2018-11-07T23:36:07.454Z,11.25
2018-11-07T23:38:34.917Z,11.30
2018-11-07T23:41:02.366Z,11.35
2018-11-07T23:43:30.017Z,11.43
2018-11-07T23:45:57.468Z,11.45
2018-11-07T23:48:24.940Z,11.48
2018-11-07T23:50:52.562Z,11.48
2018-11-07T23:53:20.035Z,11.48
2018-11-07T23:55:47.536Z,11.49
2018-11-07T23:58:15.150Z,11.47
